Time;durP1;ratioP1;P1;durP2;ratioP2;P2;SDS_P1;SDS_P2;PMS_P1;PMS_P2;Temp;Humidity;BMP_temperature;BMP_pressure;BME280_temperature;BME280_humidity;BME280_pressure;Samples;Min_cycle;Max_cycle;Signal;HPM_P1;HPM_P2
2022/10/23 00:01:39;;;;;;;19.88;13.70;;;10.90;93.30;;;;;;5030149;28;20029;-53
2022/10/23 00:04:09;;;;;;;;;;;10.90;93.40;;;;;;5033211;28;20073;-52
2022/10/23 00:06:35;;;;;;;;;;;10.90;93.40;;;;;;5032568;28;20369;-50
2022/10/23 00:09:04;;;;;;;21.52;13.55;;;10.90;93.40;;;;;;5048700;28;20356;-49
2022/10/23 00:11:33;;;;;;;19.02;14.07;;;10.90;93.50;;;;;;5014466;28;20030;-52
2022/10/23 00:14:00;;;;;;;18.42;14.18;;;11.00;93.60;;;;;;5032406;28;20037;-49
2022/10/23 00:16:27;;;;;;;22.30;14.43;;;11.00;93.50;;;;;;5015496;28;20038;-50
2022/10/23 00:18:54;;;;;;;18.95;13.52;;;11.00;93.50;;;;;;5012975;28;20042;-52
2022/10/23 00:21:21;;;;;;;19.38;13.70;;;11.00;93.60;;;;;;5014482;28;20057;-53
2022/10/23 00:23:51;;;;;;;23.95;15.15;;;11.00;93.50;;;;;;5018450;28;20030;-51
2022/10/23 00:26:18;;;;;;;23.10;15.60;;;10.90;93.60;;;;;;5011992;28;20080;-55
2022/10/23 00:28:47;;;;;;;24.67;16.20;;;10.90;93.60;;;;;;5018836;28;20025;-52
2022/10/23 00:31:15;;;;;;;20.15;16.85;;;11.00;93.70;;;;;;5032021;28;20370;-50
2022/10/23 00:33:41;;;;;;;21.83;15.43;;;11.00;93.80;;;;;;5020764;28;20037;-53
2022/10/23 00:36:10;;;;;;;27.13;18.50;;;11.10;93.80;;;;;;5020785;28;20089;-49
2022/10/23 00:38:37;;;;;;;26.13;17.33;;;11.10;93.90;;;;;;5029998;28;20036;-52
2022/10/23 00:41:05;;;;;;;24.10;16.65;;;11.20;93.90;;;;;;5033977;28;20033;-50
2022/10/23 00:43:33;;;;;;;24.45;17.73;;;11.20;93.90;;;;;;5052401;28;20053;-54
2022/10/23 00:46:00;;;;;;;24.33;17.60;;;11.20;94.00;;;;;;5036167;28;20021;-53
2022/10/23 00:48:27;;;;;;;26.85;17.63;;;11.30;94.00;;;;;;5041907;28;20048;-56
2022/10/23 00:50:54;;;;;;;27.33;17.38;;;11.30;94.00;;;;;;5036232;28;20044;-51
2022/10/23 00:53:21;;;;;;;25.60;16.75;;;11.30;94.00;;;;;;5051968;28;20032;-55
2022/10/23 00:55:51;;;;;;;18.45;16.50;;;11.40;94.00;;;;;;5055174;28;20044;-53
2022/10/23 00:58:19;;;;;;;24.70;16.67;;;11.30;93.90;;;;;;5034624;28;20534;-51
2022/10/23 01:01:15;;;;;;;20.65;16.58;;;11.30;93.90;;;;;;5036058;28;20427;-49
2022/10/23 01:03:41;;;;;;;20.85;16.50;;;11.30;93.90;;;;;;5046112;28;20481;-50
2022/10/23 01:06:41;;;;;;;26.45;17.25;;;11.30;93.90;;;;;;5022716;28;20489;-51
2022/10/23 01:09:13;;;;;;;23.02;15.45;;;11.30;93.90;;;;;;5043397;28;20395;-52
2022/10/23 01:12:16;;;;;;;20.38;17.27;;;11.30;93.80;;;;;;5036340;28;20339;-51
2022/10/23 01:15:17;;;;;;;20.67;15.40;;;11.30;93.80;;;;;;5050758;28;20063;-52
2022/10/23 01:18:10;;;;;;;21.33;16.83;;;11.30;93.90;;;;;;5054039;28;20041;-51
2022/10/23 01:20:58;;;;;;;18.90;16.25;;;11.30;93.90;;;;;;5054874;28;20025;-50
2022/10/23 01:23:50;;;;;;;23.85;16.65;;;11.30;93.80;;;;;;5053866;28;20029;-53
2022/10/23 01:26:51;;;;;;;22.85;17.00;;;11.30;93.80;;;;;;5056040;28;20082;-50
2022/10/23 01:29:44;;;;;;;23.70;17.98;;;11.30;93.80;;;;;;5053455;28;20021;-54
2022/10/23 01:32:24;;;;;;;22.45;17.35;;;11.20;93.70;;;;;;5055505;28;20033;-51
2022/10/23 01:34:59;;;;;;;;;;;11.20;93.80;;;;;;5053933;28;20028;-51
2022/10/23 01:37:48;;;;;;;20.60;17.15;;;11.20;93.80;;;;;;5054314;28;19905;-53
2022/10/23 01:40:37;;;;;;;20.23;15.77;;;11.20;93.80;;;;;;5035500;28;20029;-50
2022/10/23 01:43:18;;;;;;;19.02;17.02;;;11.20;93.90;;;;;;5039884;28;20037;-52
2022/10/23 01:46:01;;;;;;;20.55;15.93;;;11.30;93.90;;;;;;5055594;28;20509;-50
2022/10/23 01:48:31;;;;;;;23.48;17.00;;;11.30;93.90;;;;;;5053385;28;20040;-54
2022/10/23 01:51:02;;;;;;;25.05;16.95;;;11.40;93.90;;;;;;5049288;28;20478;-51
2022/10/23 01:53:34;;;;;;;24.30;19.00;;;11.30;93.90;;;;;;5036456;28;20051;-53
2022/10/23 01:56:03;;;;;;;20.55;17.02;;;11.30;93.80;;;;;;5038082;28;20113;-50
2022/10/23 01:58:33;;;;;;;21.48;18.27;;;11.30;93.80;;;;;;5053997;28;20358;-50
2022/10/23 02:01:03;;;;;;;24.30;17.70;;;11.30;93.80;;;;;;5055113;28;20093;-50
2022/10/23 02:03:31;;;;;;;20.80;16.95;;;11.30;93.80;;;;;;5035641;28;20086;-49
2022/10/23 02:05:58;;;;;;;20.60;16.73;;;11.30;93.80;;;;;;5037717;28;20029;-51
2022/10/23 02:08:26;;;;;;;22.17;18.20;;;11.30;93.80;;;;;;5053437;28;20450;-50
2022/10/23 02:11:07;;;;;;;24.48;17.58;;;11.30;93.80;;;;;;5054546;28;20446;-53
2022/10/23 02:13:38;;;;;;;20.58;16.50;;;11.30;93.80;;;;;;5055050;28;20063;-54
2022/10/23 02:16:06;;;;;;;18.30;16.40;;;11.20;93.70;;;;;;5054945;28;20070;-49
2022/10/23 02:18:55;;;;;;;18.98;16.15;;;11.20;93.70;;;;;;5053083;28;20045;-50
2022/10/23 02:21:42;;;;;;;23.30;15.73;;;11.10;93.70;;;;;;5037191;28;20089;-50
2022/10/23 02:24:12;;;;;;;20.00;15.95;;;11.10;93.70;;;;;;5052749;28;20736;-53
2022/10/23 02:26:58;;;;;;;18.85;16.90;;;11.10;93.70;;;;;;5054593;28;20150;-50
2022/10/23 02:29:33;;;;;;;26.88;16.75;;;11.00;93.60;;;;;;5034319;28;20079;-51
2022/10/23 02:32:00;;;;;;;18.23;16.30;;;11.00;93.60;;;;;;5043626;28;20035;-49
2022/10/23 02:34:30;;;;;;;20.60;16.77;;;11.00;93.70;;;;;;5053694;28;20094;-50
2022/10/23 02:36:56;;;;;;;22.85;17.17;;;10.90;93.70;;;;;;5052903;28;20033;-50
2022/10/23 02:39:26;;;;;;;17.38;14.50;;;10.90;93.60;;;;;;5053355;28;20037;-51
2022/10/23 02:42:34;;;;;;;23.05;18.00;;;10.90;93.60;;;;;;5054099;28;20025;-50
2022/10/23 02:45:25;;;;;;;20.73;15.23;;;10.90;93.60;;;;;;5029179;28;20481;-54
2022/10/23 02:48:21;;;;;;;20.08;16.90;;;10.80;93.50;;;;;;5034837;28;20939;-55
2022/10/23 02:51:12;;;;;;;25.98;17.23;;;10.80;93.50;;;;;;5053075;28;20388;-53
2022/10/23 02:54:00;;;;;;;18.92;16.50;;;10.80;93.70;;;;;;5048370;28;20766;-50
2022/10/23 02:56:52;;;;;;;24.90;18.00;;;10.80;93.70;;;;;;5041517;28;20033;-53
2022/10/23 02:59:43;;;;;;;27.02;18.63;;;10.80;93.70;;;;;;5017007;28;20051;-51
2022/10/23 03:02:31;;;;;;;28.95;17.20;;;10.80;93.70;;;;;;5033408;28;20022;-50
2022/10/23 03:05:00;;;;;;;19.30;16.60;;;10.80;93.70;;;;;;5038677;28;20021;-52
2022/10/23 03:07:27;;;;;;;21.48;16.73;;;10.80;93.70;;;;;;5053943;28;20052;-54
2022/10/23 03:09:52;;;;;;;29.48;18.77;;;10.70;93.70;;;;;;5021248;28;20025;-52
2022/10/23 03:12:19;;;;;;;22.58;16.67;;;10.70;93.70;;;;;;5053773;28;20465;-52
2022/10/23 03:14:46;;;;;;;21.50;16.77;;;10.70;93.70;;;;;;5047280;28;20029;-56
2022/10/23 03:17:13;;;;;;;18.75;15.80;;;10.60;93.60;;;;;;5053652;28;20488;-50
2022/10/23 03:19:39;;;;;;;21.45;16.45;;;10.60;93.70;;;;;;5051780;28;20064;-53
2022/10/23 03:22:06;;;;;;;19.48;16.23;;;10.60;93.70;;;;;;5052367;28;20109;-52
2022/10/23 03:24:33;;;;;;;20.73;16.15;;;10.60;93.60;;;;;;5052894;28;20110;-52
2022/10/23 03:26:58;;;;;;;23.92;17.00;;;10.60;93.60;;;;;;5053532;28;20051;-55
2022/10/23 03:29:25;;;;;;;20.45;16.25;;;10.50;93.70;;;;;;5052284;28;20458;-53
2022/10/23 03:31:55;;;;;;;23.38;17.52;;;10.50;93.70;;;;;;5052395;28;20035;-51
2022/10/23 03:34:22;;;;;;;21.52;16.52;;;10.50;93.80;;;;;;5051907;28;20075;-54
2022/10/23 03:36:48;;;;;;;17.60;15.75;;;10.50;93.70;;;;;;5031131;28;20037;-55
2022/10/23 03:39:16;;;;;;;21.25;16.27;;;10.50;93.70;;;;;;5017003;28;20079;-54
2022/10/23 03:41:43;;;;;;;23.60;16.55;;;10.50;93.70;;;;;;5049790;28;20170;-55
2022/10/23 03:44:10;;;;;;;19.38;16.65;;;10.50;93.70;;;;;;5052987;28;20033;-55
2022/10/23 03:46:39;;;;;;;26.38;17.35;;;10.40;93.70;;;;;;5034900;28;20036;-53
2022/10/23 03:49:05;;;;;;;17.77;15.65;;;10.40;93.70;;;;;;5031775;28;20454;-51
2022/10/23 03:51:33;;;;;;;20.00;16.10;;;10.40;93.70;;;;;;5032939;28;20079;-56
2022/10/23 03:54:02;;;;;;;18.55;16.40;;;10.40;93.60;;;;;;5035483;28;20043;-55
2022/10/23 03:56:29;;;;;;;16.73;14.68;;;10.40;93.60;;;;;;5050683;28;20412;-55
2022/10/23 03:58:58;;;;;;;15.15;13.48;;;10.20;93.40;;;;;;5052879;28;20808;-57
2022/10/23 04:01:25;;;;;;;18.70;14.40;;;10.10;93.30;;;;;;5031964;28;20052;-55
2022/10/23 04:03:52;;;;;;;14.10;12.45;;;10.10;93.30;;;;;;5050686;28;20774;-53
2022/10/23 04:06:19;;;;;;;17.63;13.30;;;10.00;93.30;;;;;;5034235;28;20033;-56
2022/10/23 04:08:45;;;;;;;14.43;12.68;;;9.90;93.20;;;;;;5052403;28;20043;-53
2022/10/23 04:11:10;;;;;;;16.25;13.40;;;9.90;93.20;;;;;;5028517;28;20025;-55
2022/10/23 04:13:37;;;;;;;14.32;12.88;;;9.90;93.30;;;;;;5045363;28;20119;-55
2022/10/23 04:16:04;;;;;;;13.82;12.38;;;9.90;93.20;;;;;;5033383;28;20033;-57
2022/10/23 04:18:31;;;;;;;16.33;13.95;;;9.80;93.20;;;;;;5051452;28;20107;-52
2022/10/23 04:21:01;;;;;;;17.42;14.68;;;9.80;93.30;;;;;;5049059;28;20029;-56
2022/10/23 04:23:30;;;;;;;17.48;14.98;;;9.80;93.50;;;;;;5051531;28;20131;-53
2022/10/23 04:25:59;;;;;;;15.13;13.43;;;9.80;93.40;;;;;;5033375;28;20720;-52
2022/10/23 04:28:26;;;;;;;18.27;14.27;;;9.80;93.40;;;;;;5050397;28;20025;-57
2022/10/23 04:30:53;;;;;;;15.43;12.45;;;9.80;93.30;;;;;;5051104;28;20708;-55
2022/10/23 04:33:21;;;;;;;17.92;14.38;;;9.80;93.40;;;;;;5050733;28;20049;-57
2022/10/23 04:35:48;;;;;;;17.02;14.13;;;9.80;93.40;;;;;;5034719;28;20029;-56
2022/10/23 04:38:14;;;;;;;19.20;15.07;;;9.90;93.40;;;;;;5051158;28;20029;-54
2022/10/23 04:40:41;;;;;;;18.90;15.35;;;9.90;93.60;;;;;;5034019;28;20104;-53
2022/10/23 04:43:08;;;;;;;17.90;14.30;;;10.00;93.70;;;;;;5031490;28;20512;-52
2022/10/23 04:45:35;;;;;;;21.20;14.25;;;10.00;93.50;;;;;;5046947;28;20108;-54
2022/10/23 04:48:05;;;;;;;19.02;14.70;;;10.00;93.60;;;;;;5051643;28;20045;-55
2022/10/23 04:50:32;;;;;;;20.88;14.63;;;10.00;93.80;;;;;;5052742;28;20029;-55
2022/10/23 04:52:59;;;;;;;21.25;15.60;;;10.10;93.70;;;;;;5034945;28;20045;-50
2022/10/23 04:55:24;;;;;;;22.80;14.55;;;10.10;93.80;;;;;;5049497;28;20029;-54
2022/10/23 04:57:51;;;;;;;16.85;13.82;;;10.10;93.70;;;;;;5050518;28;20029;-53
2022/10/23 05:00:18;;;;;;;16.38;14.02;;;10.10;93.70;;;;;;5032866;28;20028;-54
2022/10/23 05:02:45;;;;;;;15.52;12.98;;;10.10;93.60;;;;;;5052638;28;20045;-56
2022/10/23 05:05:11;;;;;;;16.10;13.55;;;10.00;93.50;;;;;;5034152;28;20047;-56
2022/10/23 05:07:38;;;;;;;17.48;13.60;;;9.90;93.50;;;;;;5052337;28;20057;-54
2022/10/23 05:10:07;;;;;;;16.60;13.40;;;9.90;93.50;;;;;;5052396;28;20401;-53
2022/10/23 05:12:34;;;;;;;14.63;12.65;;;9.90;93.40;;;;;;5050434;28;20385;-56
2022/10/23 05:15:00;;;;;;;16.90;14.13;;;9.80;93.40;;;;;;5051313;28;20026;-56
2022/10/23 05:17:33;;;;;;;16.42;14.32;;;9.80;93.40;;;;;;5052511;28;20531;-55
2022/10/23 05:20:04;;;;;;;18.40;15.25;;;9.90;93.50;;;;;;5051569;28;20446;-56
2022/10/23 05:22:35;;;;;;;17.95;15.10;;;9.90;93.60;;;;;;5032333;28;20041;-57
2022/10/23 05:25:03;;;;;;;15.55;13.93;;;9.90;93.50;;;;;;5025595;28;20025;-56
2022/10/23 05:27:30;;;;;;;16.95;14.70;;;9.80;93.50;;;;;;5053987;28;20070;-55
2022/10/23 05:29:57;;;;;;;18.52;14.13;;;9.90;93.50;;;;;;5054377;28;20037;-55
2022/10/23 05:32:28;;;;;;;17.70;14.68;;;9.90;93.50;;;;;;5054259;28;20033;-54
2022/10/23 05:34:57;;;;;;;18.48;14.27;;;9.90;93.50;;;;;;5055177;28;20400;-56
2022/10/23 05:37:25;;;;;;;18.30;14.90;;;9.80;93.50;;;;;;5054434;28;20045;-53
2022/10/23 05:39:52;;;;;;;20.30;14.48;;;9.80;93.40;;;;;;5053115;28;20037;-56
2022/10/23 05:42:19;;;;;;;17.30;14.80;;;9.80;93.40;;;;;;5036603;28;20040;-57
2022/10/23 05:44:45;;;;;;;16.20;13.85;;;9.70;93.30;;;;;;5036000;28;20377;-56
2022/10/23 05:47:11;;;;;;;16.65;14.73;;;9.70;93.30;;;;;;5054417;28;20118;-55
2022/10/23 05:49:38;;;;;;;17.98;14.27;;;9.70;93.40;;;;;;5052801;28;20029;-56
2022/10/23 05:52:09;;;;;;;19.77;16.45;;;9.70;93.50;;;;;;5054664;28;20029;-56
2022/10/23 05:54:35;;;;;;;25.00;18.70;;;9.80;93.50;;;;;;5053092;28;20432;-58
2022/10/23 05:57:02;;;;;;;22.77;18.27;;;9.90;93.80;;;;;;5053707;28;20065;-55
2022/10/23 05:59:29;;;;;;;21.80;18.00;;;9.90;93.80;;;;;;5054486;28;20104;-54
2022/10/23 06:01:58;;;;;;;24.13;19.38;;;10.00;93.90;;;;;;5053349;28;20021;-55
2022/10/23 06:04:25;;;;;;;23.17;19.53;;;10.20;94.00;;;;;;5053589;28;20025;-55
2022/10/23 06:06:52;;;;;;;24.35;20.70;;;10.20;94.00;;;;;;5052327;28;20040;-56
2022/10/23 06:09:19;;;;;;;23.95;19.42;;;10.20;94.00;;;;;;5053496;28;20033;-54
2022/10/23 06:11:46;;;;;;;24.13;18.75;;;10.20;93.90;;;;;;5043522;28;20129;-58
2022/10/23 06:14:13;;;;;;;27.45;20.00;;;10.20;93.90;;;;;;5052994;28;20029;-51
2022/10/23 06:16:40;;;;;;;25.33;20.48;;;10.20;94.00;;;;;;5051332;28;20017;-56
2022/10/23 06:19:10;;;;;;;29.70;21.83;;;10.20;94.00;;;;;;5036821;28;20025;-55
2022/10/23 06:21:41;;;;;;;27.85;21.23;;;10.20;94.00;;;;;;5054836;28;20071;-56
2022/10/23 06:24:10;;;;;;;30.38;21.33;;;10.30;94.00;;;;;;5053748;28;20454;-52
2022/10/23 06:26:37;;;;;;;27.63;22.15;;;10.30;94.10;;;;;;5053106;28;20442;-53
2022/10/23 06:29:03;;;;;;;26.92;22.15;;;10.30;94.10;;;;;;5053323;28;20025;-56
2022/10/23 06:31:30;;;;;;;24.70;21.90;;;10.40;94.10;;;;;;5053902;28;20526;-53
2022/10/23 06:33:58;;;;;;;28.45;21.48;;;10.40;94.10;;;;;;5053724;28;20476;-57
2022/10/23 06:36:28;;;;;;;31.02;22.08;;;10.40;94.10;;;;;;5050991;28;20104;-53
2022/10/23 06:38:55;;;;;;;28.33;21.33;;;10.40;94.10;;;;;;5047802;28;20116;-54
2022/10/23 06:41:22;;;;;;;29.50;20.70;;;10.50;94.20;;;;;;5043674;28;20048;-53
2022/10/23 06:43:50;;;;;;;32.95;23.02;;;10.50;94.10;;;;;;5031234;28;20020;-52
2022/10/23 06:46:18;;;;;;;26.63;21.23;;;10.50;94.20;;;;;;5035740;28;20061;-54
2022/10/23 06:48:49;;;;;;;24.00;19.70;;;10.50;94.10;;;;;;5052222;28;20105;-52
2022/10/23 06:51:17;;;;;;;26.77;21.02;;;10.50;94.10;;;;;;5035785;28;20025;-57
2022/10/23 06:53:44;;;;;;;27.83;21.55;;;10.50;94.00;;;;;;5052741;28;20062;-52
2022/10/23 06:56:12;;;;;;;27.55;21.45;;;10.50;93.90;;;;;;5052141;28;20044;-56
2022/10/23 06:58:39;;;;;;;21.42;19.00;;;10.50;94.00;;;;;;5053080;28;20068;-52
2022/10/23 07:01:08;;;;;;;22.98;19.42;;;10.50;93.90;;;;;;5051834;28;20066;-52
2022/10/23 07:03:35;;;;;;;26.55;19.25;;;10.50;93.90;;;;;;5052161;28;20592;-54
2022/10/23 07:06:07;;;;;;;26.33;19.25;;;10.60;93.90;;;;;;5035813;28;20029;-51
2022/10/23 07:08:36;;;;;;;24.25;19.35;;;10.60;94.00;;;;;;5052976;28;20029;-51
2022/10/23 07:11:07;;;;;;;23.98;18.70;;;10.70;94.00;;;;;;5052330;28;20020;-54
2022/10/23 07:13:35;;;;;;;23.83;19.58;;;10.70;93.90;;;;;;5033847;28;20048;-57
2022/10/23 07:16:14;;;;;;;21.73;19.25;;;10.80;93.90;;;;;;5043753;28;20350;-53
2022/10/23 07:18:42;;;;;;;22.95;18.75;;;10.80;93.90;;;;;;5052680;28;20037;-57
2022/10/23 07:21:10;;;;;;;24.90;20.65;;;10.90;93.90;;;;;;5051286;28;20064;-52
2022/10/23 07:23:37;;;;;;;24.73;19.70;;;10.90;93.80;;;;;;5038208;28;20079;-51
2022/10/23 07:26:17;;;;;;;23.52;19.35;;;10.90;93.80;;;;;;5046648;28;20466;-57
2022/10/23 07:28:46;;;;;;;24.85;19.13;;;11.00;93.90;;;;;;5047836;28;20461;-51
2022/10/23 07:31:16;;;;;;;21.60;17.73;;;11.10;94.00;;;;;;5051526;28;20040;-55
2022/10/23 07:33:45;;;;;;;22.42;18.38;;;11.20;94.00;;;;;;5033599;28;20083;-54
2022/10/23 07:36:12;;;;;;;20.95;17.73;;;11.30;94.00;;;;;;5049973;28;20033;-51
2022/10/23 07:38:39;;;;;;;22.52;17.73;;;11.40;94.00;;;;;;5052396;28;20039;-51
2022/10/23 07:41:06;;;;;;;23.70;17.95;;;11.40;94.00;;;;;;5035289;28;20044;-53
2022/10/23 07:43:34;;;;;;;21.95;18.67;;;11.50;93.90;;;;;;5034177;28;20039;-52
2022/10/23 07:46:01;;;;;;;25.23;19.08;;;11.60;94.00;;;;;;5051032;28;20025;-55
2022/10/23 07:48:31;;;;;;;26.95;19.45;;;11.60;93.90;;;;;;5051202;28;20466;-53
2022/10/23 07:51:01;;;;;;;22.50;17.02;;;11.80;93.90;;;;;;5048226;28;20025;-51
2022/10/23 07:53:28;;;;;;;20.17;15.57;;;11.90;93.90;;;;;;5052123;28;20040;-50
2022/10/23 07:56:01;;;;;;;21.00;17.05;;;11.90;93.90;;;;;;5050515;28;20025;-54
2022/10/23 07:58:29;;;;;;;20.10;16.10;;;12.10;93.80;;;;;;5051364;28;20029;-53
2022/10/23 08:00:58;;;;;;;18.45;15.02;;;12.20;93.70;;;;;;5052406;28;20043;-52
2022/10/23 08:03:31;;;;;;;24.33;16.55;;;12.20;93.60;;;;;;5033319;28;20025;-50
2022/10/23 08:05:59;;;;;;;19.25;15.85;;;12.20;93.40;;;;;;5052083;28;20029;-49
2022/10/23 08:08:25;;;;;;;23.08;14.93;;;12.20;93.40;;;;;;5052282;28;20135;-52
2022/10/23 08:10:54;;;;;;;19.85;15.48;;;12.20;93.30;;;;;;5046581;28;20025;-49
2022/10/23 08:13:21;;;;;;;19.98;14.73;;;12.30;93.30;;;;;;5050740;28;20668;-52
2022/10/23 08:15:49;;;;;;;19.50;15.18;;;12.30;93.20;;;;;;5052524;28;20362;-55
2022/10/23 08:18:16;;;;;;;18.13;14.38;;;12.40;93.20;;;;;;5051627;28;20032;-51
2022/10/23 08:20:45;;;;;;;18.30;13.35;;;12.40;93.20;;;;;;5033367;28;20036;-54
2022/10/23 08:23:16;;;;;;;15.75;13.77;;;12.40;93.20;;;;;;5051731;28;20052;-52
2022/10/23 08:25:43;;;;;;;17.38;14.77;;;12.40;93.20;;;;;;5049751;28;20460;-52
2022/10/23 08:28:10;;;;;;;18.95;13.27;;;12.50;93.10;;;;;;5051122;28;20052;-55
2022/10/23 08:30:37;;;;;;;19.20;13.18;;;12.60;93.10;;;;;;5050201;28;20032;-52
2022/10/23 08:33:05;;;;;;;15.25;12.95;;;12.70;93.10;;;;;;5051210;28;20033;-50
2022/10/23 08:35:36;;;;;;;16.35;12.75;;;12.80;93.00;;;;;;5049769;28;20029;-49
2022/10/23 08:38:04;;;;;;;16.05;11.38;;;12.80;92.90;;;;;;5050838;28;20108;-53
2022/10/23 08:40:31;;;;;;;16.55;12.40;;;12.90;93.00;;;;;;5029545;28;20029;-50
2022/10/23 08:43:09;;;;;;;18.30;12.75;;;12.90;92.80;;;;;;5014040;28;20040;-51
2022/10/23 08:45:52;;;;;;;15.68;11.82;;;13.10;93.00;;;;;;5049423;28;20029;-51
2022/10/23 08:48:42;;;;;;;15.50;11.45;;;13.20;92.80;;;;;;5032961;28;20045;-56
2022/10/23 08:51:26;;;;;;;;;;;13.20;92.60;;;;;;5014828;28;20022;-50
2022/10/23 08:54:12;;;;;;;12.05;8.98;;;13.30;92.40;;;;;;5021876;28;19921;-53
2022/10/23 08:56:42;;;;;;;16.42;11.75;;;13.40;92.50;;;;;;5031623;28;20032;-49
2022/10/23 08:59:47;;;;;;;13.10;10.25;;;13.40;92.20;;;;;;5019513;28;20026;-51
2022/10/23 09:02:25;;;;;;;12.50;9.20;;;13.40;92.00;;;;;;5032514;28;20120;-51
2022/10/23 09:04:54;;;;;;;14.52;10.50;;;13.40;92.10;;;;;;5027607;28;20018;-51
2022/10/23 09:07:46;;;;;;;16.63;9.50;;;13.50;91.90;;;;;;5026046;28;20029;-52
2022/10/23 09:10:49;;;;;;;14.25;9.85;;;13.50;92.00;;;;;;5017362;28;20467;-50
2022/10/23 09:13:30;;;;;;;10.18;8.43;;;13.50;91.80;;;;;;5043926;28;20037;-53
2022/10/23 09:16:19;;;;;;;14.32;9.90;;;13.60;91.70;;;;;;5022293;28;20041;-49
2022/10/23 09:18:47;;;;;;;18.60;9.23;;;13.70;91.90;;;;;;5013572;28;20033;-48
2022/10/23 09:21:12;;;;;;;12.63;9.10;;;13.80;91.80;;;;;;5020278;28;20033;-50
2022/10/23 09:23:39;;;;;;;13.85;8.80;;;13.90;91.80;;;;;;5033492;28;20401;-52
2022/10/23 09:26:17;;;;;;;13.40;9.10;;;13.90;91.70;;;;;;5033503;28;20378;-51
2022/10/23 09:28:47;;;;;;;12.80;8.73;;;14.00;91.70;;;;;;5033070;28;20036;-48
2022/10/23 09:31:16;;;;;;;12.85;9.65;;;14.00;91.60;;;;;;5024039;28;20038;-49
2022/10/23 09:33:55;;;;;;;12.43;8.73;;;14.00;91.30;;;;;;5032740;28;20096;-51
2022/10/23 09:36:24;;;;;;;16.88;8.57;;;14.00;91.40;;;;;;5020938;28;20030;-50
2022/10/23 09:38:53;;;;;;;14.27;8.82;;;14.00;91.20;;;;;;5029758;28;20091;-50
2022/10/23 09:41:27;;;;;;;12.43;7.85;;;13.90;91.20;;;;;;5024323;28;20035;-48
2022/10/23 09:44:23;;;;;;;9.60;7.60;;;14.00;91.40;;;;;;5021905;28;20455;-49
2022/10/23 09:47:17;;;;;;;11.32;8.35;;;14.00;91.20;;;;;;5032303;28;20049;-48
2022/10/23 09:49:49;;;;;;;12.27;8.15;;;14.00;90.80;;;;;;5025220;28;20091;-53
2022/10/23 09:52:17;;;;;;;12.85;8.85;;;14.10;91.00;;;;;;5007850;28;20056;-53
2022/10/23 09:54:51;;;;;;;14.82;9.30;;;14.20;91.20;;;;;;5023916;28;20578;-54
2022/10/23 09:57:38;;;;;;;12.70;8.23;;;14.30;91.10;;;;;;5031932;28;20048;-54
2022/10/23 10:00:13;;;;;;;12.13;7.50;;;14.30;90.90;;;;;;5012236;28;21825;-52
2022/10/23 10:02:42;;;;;;;8.90;7.30;;;14.40;90.80;;;;;;5009062;28;20462;-50
2022/10/23 10:05:30;;;;;;;12.85;7.53;;;14.40;90.70;;;;;;5027789;28;20057;-50
2022/10/23 10:08:07;;;;;;;14.10;8.82;;;14.40;90.60;;;;;;5033883;28;20025;-51
2022/10/23 10:10:44;;;;;;;13.75;7.03;;;14.50;90.30;;;;;;5033827;28;20387;-52
2022/10/23 10:13:26;;;;;;;9.38;6.65;;;14.50;90.20;;;;;;5044937;28;20064;-50
2022/10/23 10:16:00;;;;;;;8.68;5.78;;;14.70;90.40;;;;;;5012218;28;20447;-51
2022/10/23 10:19:00;;;;;;;8.82;6.70;;;14.90;90.30;;;;;;5032025;28;20033;-53
2022/10/23 10:21:51;;;;;;;12.77;7.35;;;15.00;90.20;;;;;;5013724;28;20435;-52
2022/10/23 10:24:37;;;;;;;7.78;5.07;;;15.20;90.10;;;;;;5007106;28;20053;-53
2022/10/23 10:27:24;;;;;;;10.02;5.90;;;15.30;89.50;;;;;;5014659;28;20041;-54
2022/10/23 10:30:14;;;;;;;10.95;5.72;;;15.50;89.50;;;;;;5013690;28;20466;-54
2022/10/23 10:33:01;;;;;;;;;;;15.50;88.30;;;;;;5015279;28;20029;-51
2022/10/23 10:35:50;;;;;;;13.82;5.65;;;15.70;88.10;;;;;;5033958;28;20362;-50
2022/10/23 10:39:07;;;;;;;11.02;4.75;;;15.70;87.10;;;;;;5007537;28;20033;-54
2022/10/23 10:42:16;;;;;;;14.20;5.30;;;15.90;87.40;;;;;;5012375;28;20033;-53
2022/10/23 10:45:21;;;;;;;11.80;5.70;;;15.90;87.20;;;;;;5003379;28;20064;-51
2022/10/23 10:48:11;;;;;;;9.60;4.47;;;15.90;86.50;;;;;;5020814;28;20064;-50
2022/10/23 10:51:01;;;;;;;9.48;4.35;;;15.90;86.80;;;;;;5053623;28;20025;-50
2022/10/23 10:53:51;;;;;;;7.40;4.13;;;16.00;87.00;;;;;;5052630;28;20044;-53
2022/10/23 10:56:20;;;;;;;9.15;5.03;;;15.90;86.40;;;;;;5052996;28;20020;-49
2022/10/23 10:58:52;;;;;;;8.00;4.22;;;15.90;86.60;;;;;;5053735;28;20111;-52
2022/10/23 11:01:45;;;;;;;11.40;4.65;;;16.00;86.80;;;;;;5030748;28;20137;-50
2022/10/23 11:04:22;;;;;;;9.60;4.35;;;16.00;86.50;;;;;;5044089;28;20029;-52
2022/10/23 11:06:52;;;;;;;8.40;4.03;;;16.00;86.70;;;;;;5052730;28;20028;-53
2022/10/23 11:09:38;;;;;;;5.63;3.33;;;16.00;87.20;;;;;;5043181;28;20049;-53
2022/10/23 11:12:05;;;;;;;11.27;4.50;;;16.10;87.40;;;;;;5044635;28;20028;-51
2022/10/23 11:14:33;;;;;;;13.82;4.93;;;16.00;86.50;;;;;;5052030;28;20033;-52
2022/10/23 11:17:25;;;;;;;10.57;4.70;;;15.90;86.30;;;;;;5052294;28;20021;-48
2022/10/23 11:19:56;;;;;;;14.45;5.25;;;15.90;86.40;;;;;;5052293;28;20454;-48
2022/10/23 11:22:41;;;;;;;10.48;4.95;;;15.80;86.40;;;;;;5031700;28;20037;-50
2022/10/23 11:25:37;;;;;;;7.15;4.30;;;15.90;86.60;;;;;;5051713;28;20029;-51
2022/10/23 11:28:30;;;;;;;10.75;4.22;;;16.00;86.90;;;;;;5052010;28;20532;-50
2022/10/23 11:31:49;;;;;;;9.77;5.53;;;16.00;86.20;;;;;;5053436;28;20029;-50
2022/10/23 11:34:36;;;;;;;7.18;3.72;;;16.00;86.50;;;;;;4975398;28;20037;-50
2022/10/23 11:37:04;;;;;;;11.77;5.03;;;16.00;86.60;;;;;;5046930;28;20109;-48
2022/10/23 11:39:36;;;;;;;8.70;4.75;;;16.10;86.50;;;;;;5048750;28;20033;-49
2022/10/23 11:42:08;;;;;;;9.25;4.07;;;16.20;86.40;;;;;;5052663;28;20024;-52
2022/10/23 11:44:52;;;;;;;8.45;3.63;;;16.20;86.40;;;;;;5050527;28;20116;-48
2022/10/23 11:47:35;;;;;;;11.27;4.13;;;16.30;86.30;;;;;;5032505;28;20556;-48
2022/10/23 11:50:14;;;;;;;8.13;4.32;;;16.20;86.10;;;;;;5044042;28;20355;-48
2022/10/23 11:53:21;;;;;;;7.55;4.10;;;16.40;86.20;;;;;;5018141;28;20061;-49
2022/10/23 11:56:04;;;;;;;8.32;3.67;;;16.40;86.10;;;;;;5029912;28;20044;-48
2022/10/23 11:58:50;;;;;;;8.07;3.80;;;16.30;85.30;;;;;;5043545;28;20025;-51
2022/10/23 12:01:40;;;;;;;8.60;3.42;;;16.20;85.40;;;;;;5051532;28;20043;-48
2022/10/23 12:04:14;;;;;;;13.25;3.85;;;16.20;85.90;;;;;;5044641;28;20060;-48
2022/10/23 12:06:55;;;;;;;8.55;3.50;;;16.30;86.40;;;;;;5042397;28;20429;-49
2022/10/23 12:09:29;;;;;;;9.02;3.85;;;16.40;86.20;;;;;;5045472;28;20096;-52
2022/10/23 12:12:07;;;;;;;5.88;3.65;;;16.40;85.80;;;;;;5051215;28;20025;-48
2022/10/23 12:14:37;;;;;;;7.80;3.22;;;16.40;85.50;;;;;;5046846;28;20041;-49
2022/10/23 12:17:43;;;;;;;7.45;3.47;;;16.50;85.80;;;;;;5016346;28;20108;-49
2022/10/23 12:20:11;;;;;;;9.25;3.75;;;16.50;85.70;;;;;;5042668;28;20243;-52
2022/10/23 12:22:59;;;;;;;8.05;3.60;;;16.60;85.30;;;;;;5050899;28;20103;-53
2022/10/23 12:26:04;;;;;;;7.35;3.65;;;16.60;84.90;;;;;;5034726;28;20062;-48
2022/10/23 12:28:40;;;;;;;8.13;3.80;;;16.60;84.80;;;;;;5052200;28;20033;-49
2022/10/23 12:31:29;;;;;;;9.88;3.72;;;16.50;85.10;;;;;;5044986;28;20082;-51
2022/10/23 12:34:31;;;;;;;11.52;4.32;;;16.60;84.70;;;;;;5050938;28;20116;-48
2022/10/23 12:37:26;;;;;;;9.38;4.30;;;16.50;85.20;;;;;;5053801;28;20029;-49
2022/10/23 12:39:54;;;;;;;7.13;3.85;;;16.50;85.30;;;;;;5049543;28;20037;-48
2022/10/23 12:42:26;;;;;;;7.28;3.70;;;16.60;85.50;;;;;;5056062;28;20504;-50
2022/10/23 12:45:11;;;;;;;6.78;4.18;;;16.50;85.30;;;;;;5043436;28;20032;-53
2022/10/23 12:47:38;;;;;;;7.43;3.88;;;16.50;85.70;;;;;;5034976;28;20045;-48
2022/10/23 12:50:19;;;;;;;10.40;4.70;;;16.40;85.40;;;;;;5036398;28;20379;-47
2022/10/23 12:53:01;;;;;;;10.38;4.13;;;16.40;85.90;;;;;;5016860;28;20029;-48
2022/10/23 12:56:08;;;;;;;7.65;3.97;;;16.40;85.60;;;;;;5018449;28;20036;-51
2022/10/23 12:58:34;;;;;;;9.85;4.95;;;16.40;85.50;;;;;;5028495;28;20114;-47
2022/10/23 13:01:04;;;;;;;6.95;4.60;;;16.40;85.90;;;;;;5013747;28;20050;-52
2022/10/23 13:03:33;;;;;;;8.95;4.35;;;16.40;86.10;;;;;;5001055;28;20121;-48
2022/10/23 13:06:01;;;;;;;14.60;4.32;;;16.40;86.30;;;;;;5035129;28;20085;-49
2022/10/23 13:08:57;;;;;;;8.50;4.53;;;16.40;86.20;;;;;;5018453;28;20029;-50
2022/10/23 13:11:25;;;;;;;14.00;5.32;;;16.30;86.50;;;;;;5030560;28;20038;-50